createdAt,value
2023-10-10T00:01:45.912Z,18.91
2023-10-10T00:04:13.406Z,18.92
2023-10-10T00:06:41.624Z,18.91
2023-10-10T00:09:11.989Z,18.90
2023-10-10T00:11:43.510Z,18.92
2023-10-10T00:14:20.674Z,18.90
2023-10-10T00:16:56.764Z,18.91
2023-10-10T00:19:38.661Z,18.89
2023-10-10T00:22:08.073Z,18.89
2023-10-10T00:24:35.074Z,18.87
2023-10-10T00:27:14.637Z,18.88
2023-10-10T00:29:44.999Z,18.88
2023-10-10T00:32:19.511Z,18.88
2023-10-10T00:34:49.465Z,18.87
2023-10-10T00:37:18.809Z,18.83
2023-10-10T00:39:53.955Z,18.83
2023-10-10T00:42:21.734Z,18.87
2023-10-10T00:44:49.985Z,18.88
2023-10-10T00:47:17.389Z,18.84
2023-10-10T00:49:46.432Z,18.84
2023-10-10T00:52:18.171Z,18.83
2023-10-10T00:54:45.325Z,18.84
2023-10-10T00:57:21.247Z,18.85
2023-10-10T00:59:49.719Z,18.81
2023-10-10T01:02:22.602Z,18.81
2023-10-10T01:04:50.462Z,18.79
2023-10-10T01:07:21.993Z,18.78
2023-10-10T01:09:55.792Z,18.77
2023-10-10T01:12:24.546Z,18.79
2023-10-10T01:14:56.224Z,18.81
2023-10-10T01:17:30.460Z,18.80
2023-10-10T01:20:19.200Z,18.80
2023-10-10T01:22:50.132Z,18.79
2023-10-10T01:25:34.239Z,18.79
2023-10-10T01:28:08.051Z,18.78
2023-10-10T01:30:53.578Z,18.77
2023-10-10T01:33:37.229Z,18.77
2023-10-10T01:36:13.001Z,18.77
2023-10-10T01:38:45.641Z,18.77
2023-10-10T01:41:24.352Z,18.76
2023-10-10T01:44:09.787Z,18.74
2023-10-10T01:46:36.671Z,18.73
2023-10-10T01:49:03.718Z,18.77
2023-10-10T01:51:34.702Z,18.78
2023-10-10T01:54:13.130Z,18.78
2023-10-10T01:56:39.925Z,18.76
2023-10-10T01:59:11.402Z,18.74
2023-10-10T02:01:39.446Z,18.74
2023-10-10T02:04:09.150Z,18.75
2023-10-10T02:06:42.161Z,18.74
2023-10-10T02:09:20.715Z,18.74
2023-10-10T02:11:56.501Z,18.74
2023-10-10T02:14:26.713Z,18.74
2023-10-10T02:16:56.540Z,18.71
2023-10-10T02:19:36.973Z,18.70
2023-10-10T02:22:16.699Z,18.68
2023-10-10T02:24:50.217Z,18.67
2023-10-10T02:27:21.395Z,18.68
2023-10-10T02:29:51.297Z,18.69
2023-10-10T02:32:20.922Z,18.68
2023-10-10T02:35:02.140Z,18.66
2023-10-10T02:37:28.934Z,18.69
2023-10-10T02:40:09.380Z,18.67
2023-10-10T02:42:36.137Z,18.64
2023-10-10T02:45:03.919Z,18.65
2023-10-10T02:47:34.212Z,18.65
2023-10-10T02:50:12.826Z,18.64
2023-10-10T02:52:47.067Z,18.64
2023-10-10T02:55:34.844Z,18.68
2023-10-10T02:58:02.131Z,18.67
2023-10-10T03:00:29.757Z,18.65
2023-10-10T03:03:00.379Z,18.63
2023-10-10T03:05:40.986Z,18.65
2023-10-10T03:08:16.144Z,18.64
2023-10-10T03:10:47.003Z,18.62
2023-10-10T03:13:29.817Z,18.61
2023-10-10T03:15:58.008Z,18.63
2023-10-10T03:18:30.591Z,18.62
2023-10-10T03:21:13.188Z,18.63
2023-10-10T03:23:54.181Z,18.64
2023-10-10T03:26:42.327Z,18.61
2023-10-10T03:29:13.369Z,18.62
2023-10-10T03:31:48.060Z,18.60
2023-10-10T03:34:45.172Z,18.61
2023-10-10T03:37:27.047Z,18.60
2023-10-10T03:39:59.587Z,18.59
2023-10-10T03:42:45.198Z,18.61
2023-10-10T03:45:30.952Z,18.60
2023-10-10T03:48:16.377Z,18.59
2023-10-10T03:51:03.399Z,18.59
2023-10-10T03:53:49.563Z,18.58
2023-10-10T03:56:38.780Z,18.60
2023-10-10T03:59:25.741Z,18.57
2023-10-10T04:02:13.507Z,18.57
2023-10-10T04:05:12.009Z,18.54
2023-10-10T04:08:05.859Z,18.53
2023-10-10T04:10:51.117Z,18.53
2023-10-10T04:13:36.840Z,18.50
2023-10-10T04:16:51.233Z,18.49
2023-10-10T04:19:36.779Z,18.47
2023-10-10T04:22:25.008Z,18.45
2023-10-10T04:25:10.651Z,18.46
2023-10-10T04:27:56.102Z,18.47
2023-10-10T04:30:41.866Z,18.42
2023-10-10T04:33:26.988Z,18.44
2023-10-10T04:36:12.520Z,18.43
2023-10-10T04:38:58.305Z,18.43
2023-10-10T04:41:43.413Z,18.41
2023-10-10T04:44:29.139Z,18.41
2023-10-10T04:47:14.248Z,18.35
2023-10-10T04:49:59.607Z,18.32
2023-10-10T04:52:44.946Z,18.34
2023-10-10T04:55:30.312Z,18.34
2023-10-10T04:58:15.481Z,18.34
2023-10-10T05:01:00.501Z,18.33
2023-10-10T05:03:45.799Z,18.30
2023-10-10T05:06:31.563Z,18.31
2023-10-10T05:09:19.978Z,18.31
2023-10-10T05:12:05.110Z,18.29
2023-10-10T05:14:50.582Z,18.27
2023-10-10T05:17:35.784Z,18.25
2023-10-10T05:20:21.011Z,18.21
2023-10-10T05:23:06.615Z,18.24
2023-10-10T05:25:34.062Z,18.22
2023-10-10T05:28:00.944Z,18.22
2023-10-10T05:30:28.876Z,18.24
2023-10-10T05:33:03.929Z,18.24
2023-10-10T05:35:32.306Z,18.24
2023-10-10T05:38:01.823Z,18.24
2023-10-10T05:40:29.288Z,18.21
2023-10-10T05:42:58.795Z,18.24
2023-10-10T05:45:26.308Z,18.22
2023-10-10T05:47:53.590Z,18.24
2023-10-10T05:50:20.516Z,18.24
2023-10-10T05:52:47.420Z,18.22
2023-10-10T05:55:14.999Z,18.22
2023-10-10T05:57:45.275Z,18.21
2023-10-10T06:00:13.164Z,18.21
2023-10-10T06:02:43.608Z,18.21
2023-10-10T06:05:11.150Z,18.22
2023-10-10T06:07:39.011Z,18.20
2023-10-10T06:10:08.028Z,18.21
2023-10-10T06:12:35.410Z,18.21
2023-10-10T06:15:06.621Z,18.18
2023-10-10T06:17:36.138Z,18.19
2023-10-10T06:20:03.461Z,18.17
2023-10-10T06:22:31.173Z,18.16
2023-10-10T06:25:00.671Z,18.15
2023-10-10T06:27:30.261Z,18.19
2023-10-10T06:30:00.306Z,18.19
2023-10-10T06:32:27.931Z,18.22
2023-10-10T06:35:17.381Z,18.23
2023-10-10T06:37:44.464Z,18.22
2023-10-10T06:40:11.756Z,18.23
2023-10-10T06:42:39.651Z,18.33
2023-10-10T06:45:11.428Z,18.28
2023-10-10T06:47:42.966Z,18.26
2023-10-10T06:50:13.602Z,18.24
2023-10-10T06:52:40.642Z,18.24
2023-10-10T06:55:12.270Z,18.25
2023-10-10T06:57:42.552Z,18.27
2023-10-10T07:00:18.763Z,18.24
2023-10-10T07:02:50.002Z,18.20
2023-10-10T07:05:17.407Z,18.22
2023-10-10T07:07:44.211Z,18.27
2023-10-10T07:10:11.099Z,18.26
2023-10-10T07:12:40.130Z,18.28
2023-10-10T07:15:11.142Z,18.28
2023-10-10T07:17:40.578Z,18.28
2023-10-10T07:20:07.719Z,18.29
2023-10-10T07:22:36.152Z,18.29
2023-10-10T07:25:18.825Z,18.28
2023-10-10T07:27:45.973Z,18.27
2023-10-10T07:30:18.874Z,18.22
2023-10-10T07:32:50.133Z,18.25
2023-10-10T07:35:20.820Z,18.27
2023-10-10T07:37:47.836Z,18.28
2023-10-10T07:40:15.861Z,18.31
2023-10-10T07:42:42.640Z,18.30
2023-10-10T07:45:15.713Z,18.31
2023-10-10T07:47:58.542Z,18.36
2023-10-10T07:50:36.837Z,18.37
2023-10-10T07:53:07.055Z,18.37
2023-10-10T07:55:52.129Z,18.41
2023-10-10T07:58:19.188Z,18.43
2023-10-10T08:00:46.277Z,18.42
2023-10-10T08:03:20.664Z,18.43
2023-10-10T08:05:49.634Z,18.42
2023-10-10T08:08:17.278Z,18.45
2023-10-10T08:10:47.665Z,18.45
2023-10-10T08:13:15.603Z,18.47
2023-10-10T08:15:57.521Z,18.49
2023-10-10T08:18:43.627Z,18.50
2023-10-10T08:21:12.478Z,18.50
2023-10-10T08:23:51.255Z,18.55
2023-10-10T08:26:30.274Z,18.58
2023-10-10T08:28:57.219Z,18.60
2023-10-10T08:31:24.387Z,18.57
2023-10-10T08:33:51.343Z,18.57
2023-10-10T08:36:26.335Z,18.58
2023-10-10T08:38:57.967Z,18.60
2023-10-10T08:41:32.909Z,18.61
2023-10-10T08:44:00.073Z,18.64
2023-10-10T08:46:42.091Z,18.64
2023-10-10T08:49:09.957Z,18.66
2023-10-10T08:51:37.363Z,18.66
2023-10-10T08:54:12.421Z,18.69
2023-10-10T08:56:42.910Z,18.73
2023-10-10T08:59:12.563Z,18.75
2023-10-10T09:01:43.593Z,18.78
2023-10-10T09:04:19.058Z,18.79
2023-10-10T09:06:58.331Z,18.82
2023-10-10T09:09:36.088Z,18.83
2023-10-10T09:12:10.640Z,18.84
2023-10-10T09:14:41.044Z,18.86
2023-10-10T09:17:13.150Z,18.87
2023-10-10T09:19:49.075Z,18.91
2023-10-10T09:22:30.932Z,18.92
2023-10-10T09:24:57.762Z,18.94
2023-10-10T09:27:28.836Z,18.96
2023-10-10T09:29:58.573Z,18.99
2023-10-10T09:32:38.242Z,19.01
2023-10-10T09:35:07.991Z,19.03
2023-10-10T09:37:40.067Z,19.06
2023-10-10T09:40:17.174Z,19.08
2023-10-10T09:43:05.299Z,19.12
2023-10-10T09:45:54.657Z,19.14
2023-10-10T09:48:41.255Z,19.15
2023-10-10T09:51:37.809Z,19.18
2023-10-10T09:54:17.600Z,19.20
2023-10-10T09:57:09.807Z,19.23
2023-10-10T09:59:38.954Z,19.27
2023-10-10T10:02:07.010Z,19.28
2023-10-10T10:04:43.625Z,19.31
2023-10-10T10:07:42.493Z,19.34
2023-10-10T10:10:36.444Z,19.37
2023-10-10T10:13:29.975Z,19.40
2023-10-10T10:16:16.870Z,19.44
2023-10-10T10:18:48.166Z,19.46
2023-10-10T10:21:20.050Z,19.48
2023-10-10T10:23:49.321Z,19.51
2023-10-10T10:26:35.832Z,19.53
2023-10-10T10:29:17.174Z,19.59
2023-10-10T10:31:52.965Z,19.60
2023-10-10T10:34:32.829Z,19.62
2023-10-10T10:37:07.704Z,19.65
2023-10-10T10:39:36.615Z,19.67
2023-10-10T10:42:13.563Z,19.69
2023-10-10T10:45:00.511Z,19.71
2023-10-10T10:47:37.033Z,19.75
2023-10-10T10:50:05.797Z,19.77
2023-10-10T10:52:45.603Z,19.80
2023-10-10T10:55:25.218Z,19.83
2023-10-10T10:58:07.406Z,19.86
2023-10-10T11:00:59.790Z,19.88
2023-10-10T11:03:37.381Z,19.90
2023-10-10T11:06:09.652Z,19.94
2023-10-10T11:08:57.482Z,19.97
2023-10-10T11:11:38.381Z,20.00
2023-10-10T11:14:17.443Z,20.02
2023-10-10T11:16:48.372Z,20.07
2023-10-10T11:19:22.897Z,20.10
2023-10-10T11:22:01.579Z,20.11
2023-10-10T11:24:33.122Z,20.14
2023-10-10T11:27:15.323Z,20.18
2023-10-10T11:29:47.473Z,20.22
2023-10-10T11:32:30.595Z,20.24
2023-10-10T11:35:19.302Z,20.26
2023-10-10T11:37:49.444Z,20.29
2023-10-10T11:40:33.051Z,20.32
2023-10-10T11:43:01.349Z,20.35
2023-10-10T11:45:29.500Z,20.37
2023-10-10T11:48:06.709Z,20.39
2023-10-10T11:50:46.271Z,20.43
2023-10-10T11:53:21.018Z,20.45
2023-10-10T11:55:48.914Z,20.48
2023-10-10T11:58:18.659Z,20.52
2023-10-10T12:00:46.223Z,20.54
2023-10-10T12:03:15.329Z,20.56
2023-10-10T12:05:52.112Z,20.58
2023-10-10T12:08:26.105Z,20.61
2023-10-10T12:10:57.744Z,20.62
2023-10-10T12:13:30.581Z,20.64
2023-10-10T12:16:13.814Z,20.64
2023-10-10T12:18:51.583Z,20.64
2023-10-10T12:21:22.793Z,20.67
2023-10-10T12:24:01.354Z,20.67
2023-10-10T12:26:31.359Z,20.67
2023-10-10T12:28:58.548Z,20.70
2023-10-10T12:31:25.409Z,20.69
2023-10-10T12:33:55.508Z,20.70
2023-10-10T12:36:31.044Z,20.73
2023-10-10T12:39:00.832Z,20.72
2023-10-10T12:41:28.126Z,20.75
2023-10-10T12:43:54.931Z,20.76
2023-10-10T12:46:25.165Z,20.78
2023-10-10T12:48:53.531Z,20.80
2023-10-10T12:51:24.095Z,20.81
2023-10-10T12:53:58.166Z,20.82
2023-10-10T12:56:25.256Z,20.85
2023-10-10T12:59:03.056Z,20.86
2023-10-10T13:01:37.197Z,20.89
2023-10-10T13:04:09.463Z,20.93
2023-10-10T13:06:41.281Z,20.94
2023-10-10T13:09:09.958Z,20.98
2023-10-10T13:11:45.580Z,21.02
2023-10-10T13:14:20.717Z,21.04
2023-10-10T13:16:47.720Z,21.08
2023-10-10T13:19:14.992Z,21.10
2023-10-10T13:21:44.073Z,21.14
2023-10-10T13:24:13.297Z,21.16
2023-10-10T13:26:41.051Z,21.19
2023-10-10T13:29:09.071Z,21.19
2023-10-10T13:31:36.706Z,21.24
2023-10-10T13:34:04.411Z,21.26
2023-10-10T13:36:32.072Z,21.29
2023-10-10T13:39:06.967Z,21.31
2023-10-10T13:41:37.491Z,21.32
2023-10-10T13:44:05.302Z,21.33
2023-10-10T13:46:34.480Z,21.35
2023-10-10T13:49:01.815Z,21.37
2023-10-10T13:51:29.635Z,21.38
2023-10-10T13:53:58.482Z,21.38
2023-10-10T13:56:25.526Z,21.41
2023-10-10T13:58:53.942Z,21.45
2023-10-10T14:01:29.934Z,21.47
2023-10-10T14:04:16.701Z,21.49
2023-10-10T14:06:47.339Z,21.52
2023-10-10T14:09:24.492Z,21.53
2023-10-10T14:11:58.748Z,21.54
2023-10-10T14:14:25.675Z,21.56
2023-10-10T14:16:52.608Z,21.59
2023-10-10T14:19:19.758Z,21.60
2023-10-10T14:21:49.009Z,21.61
2023-10-10T14:24:16.268Z,21.64
2023-10-10T14:26:46.244Z,21.65
2023-10-10T14:29:16.083Z,21.68
2023-10-10T14:31:46.880Z,21.69
2023-10-10T14:34:22.189Z,21.73
2023-10-10T14:36:53.236Z,21.74
2023-10-10T14:39:31.066Z,21.76
2023-10-10T14:41:59.043Z,21.78
2023-10-10T14:44:27.845Z,21.79
2023-10-10T14:47:04.387Z,21.80
2023-10-10T14:49:31.330Z,21.83
2023-10-10T14:52:06.389Z,21.84
2023-10-10T14:54:42.388Z,21.83
2023-10-10T14:57:11.491Z,21.84
2023-10-10T14:59:38.432Z,21.85
2023-10-10T15:02:07.950Z,21.85
2023-10-10T15:04:35.217Z,21.86
2023-10-10T15:07:02.153Z,21.86
2023-10-10T15:09:28.952Z,21.87
2023-10-10T15:12:00.926Z,21.86
2023-10-10T15:14:28.018Z,21.86
2023-10-10T15:16:55.212Z,21.87
2023-10-10T15:19:22.187Z,21.87
2023-10-10T15:21:49.891Z,21.87
2023-10-10T15:24:17.039Z,21.88
2023-10-10T15:26:49.771Z,21.89
2023-10-10T15:29:18.624Z,21.89
2023-10-10T15:31:46.638Z,21.89
2023-10-10T15:34:17.563Z,21.91
2023-10-10T15:36:47.928Z,21.91
2023-10-10T15:39:17.196Z,21.90
2023-10-10T15:41:46.191Z,21.90
2023-10-10T15:44:14.263Z,21.90
2023-10-10T15:46:43.813Z,21.92
2023-10-10T15:49:33.174Z,21.91
2023-10-10T15:52:05.499Z,21.91
2023-10-10T15:54:35.935Z,21.93
2023-10-10T15:57:04.917Z,21.94
2023-10-10T15:59:31.823Z,21.93
2023-10-10T16:01:59.711Z,21.93
2023-10-10T16:04:29.090Z,21.92
2023-10-10T16:06:56.807Z,21.91
2023-10-10T16:09:31.179Z,21.90
2023-10-10T16:11:58.825Z,21.90
2023-10-10T16:14:27.347Z,21.90
2023-10-10T16:16:54.400Z,21.89
2023-10-10T16:19:28.681Z,21.90
2023-10-10T16:21:56.650Z,21.90
2023-10-10T16:24:29.355Z,21.88
2023-10-10T16:27:01.020Z,21.88
2023-10-10T16:29:35.171Z,21.88
2023-10-10T16:32:19.545Z,21.87
2023-10-10T16:34:46.622Z,21.88
2023-10-10T16:37:17.678Z,21.87
2023-10-10T16:39:48.369Z,21.87
2023-10-10T16:42:21.299Z,21.86
2023-10-10T16:44:48.524Z,21.85
2023-10-10T16:47:23.158Z,21.85
2023-10-10T16:49:53.670Z,21.84
2023-10-10T16:52:29.905Z,21.83
2023-10-10T16:54:58.363Z,21.84
2023-10-10T16:57:26.080Z,21.83
2023-10-10T16:59:56.721Z,21.82
2023-10-10T17:02:29.777Z,21.82
2023-10-10T17:04:57.130Z,21.80
2023-10-10T17:07:27.500Z,21.78
2023-10-10T17:09:54.388Z,21.78
2023-10-10T17:12:21.145Z,21.77
2023-10-10T17:14:49.148Z,21.77
2023-10-10T17:17:15.989Z,21.75
2023-10-10T17:19:43.017Z,21.75
2023-10-10T17:22:09.832Z,21.75
2023-10-10T17:24:36.735Z,21.74
2023-10-10T17:27:08.161Z,21.72
2023-10-10T17:29:37.246Z,21.72
2023-10-10T17:32:04.207Z,21.71
2023-10-10T17:34:34.814Z,21.71
2023-10-10T17:37:01.659Z,21.68
2023-10-10T17:39:28.434Z,21.68
2023-10-10T17:41:55.822Z,21.65
2023-10-10T17:44:22.730Z,21.65
2023-10-10T17:46:49.624Z,21.65
2023-10-10T17:49:16.951Z,21.64
2023-10-10T17:51:46.216Z,21.63
2023-10-10T17:54:13.542Z,21.63
2023-10-10T17:56:40.609Z,21.62
2023-10-10T17:59:07.614Z,21.61
2023-10-10T18:01:34.563Z,21.61
2023-10-10T18:04:04.467Z,21.59
2023-10-10T18:06:31.534Z,21.58
2023-10-10T18:09:09.708Z,21.57
2023-10-10T18:11:38.235Z,21.56
2023-10-10T18:14:08.713Z,21.55
2023-10-10T18:16:36.424Z,21.52
2023-10-10T18:19:04.106Z,21.52
2023-10-10T18:21:33.320Z,21.49
2023-10-10T18:24:07.580Z,21.50
2023-10-10T18:26:39.391Z,21.49
2023-10-10T18:29:07.104Z,21.47
2023-10-10T18:31:36.020Z,21.45
2023-10-10T18:34:06.554Z,21.45
2023-10-10T18:36:38.456Z,21.44
2023-10-10T18:39:13.218Z,21.43
2023-10-10T18:41:44.543Z,21.42
2023-10-10T18:44:12.259Z,21.41
2023-10-10T18:46:39.404Z,21.40
2023-10-10T18:49:10.850Z,21.38
2023-10-10T18:51:37.811Z,21.38
2023-10-10T18:54:09.988Z,21.37
2023-10-10T18:56:36.989Z,21.35
2023-10-10T18:59:03.837Z,21.33
2023-10-10T19:01:30.643Z,21.33
2023-10-10T19:04:00.422Z,21.29
2023-10-10T19:06:28.041Z,21.28
2023-10-10T19:09:01.148Z,21.26
2023-10-10T19:11:28.290Z,21.24
2023-10-10T19:13:55.471Z,21.24
2023-10-10T19:16:22.858Z,21.20
2023-10-10T19:18:49.752Z,21.18
2023-10-10T19:21:18.501Z,21.17
2023-10-10T19:23:49.524Z,21.13
2023-10-10T19:26:16.867Z,21.14
2023-10-10T19:28:44.447Z,21.14
2023-10-10T19:31:11.312Z,21.13
2023-10-10T19:33:38.276Z,21.10
2023-10-10T19:36:09.400Z,21.10
2023-10-10T19:38:36.402Z,21.10
2023-10-10T19:41:10.264Z,21.09
2023-10-10T19:43:38.377Z,21.05
2023-10-10T19:46:11.949Z,21.03
2023-10-10T19:48:43.520Z,21.02
2023-10-10T19:51:18.528Z,21.01
2023-10-10T19:53:46.869Z,20.98
2023-10-10T19:56:13.820Z,20.97
2023-10-10T19:58:43.239Z,20.94
2023-10-10T20:01:10.511Z,20.95
2023-10-10T20:03:37.698Z,20.94
2023-10-10T20:06:08.172Z,20.90
2023-10-10T20:08:36.095Z,20.89
2023-10-10T20:11:04.870Z,20.90
2023-10-10T20:13:31.755Z,20.90
2023-10-10T20:15:58.572Z,20.88
2023-10-10T20:18:26.486Z,20.86
2023-10-10T20:20:53.584Z,20.85
2023-10-10T20:23:22.234Z,20.84
2023-10-10T20:25:52.649Z,20.82
2023-10-10T20:28:19.533Z,20.80
2023-10-10T20:30:47.112Z,20.77
2023-10-10T20:33:17.708Z,20.75
2023-10-10T20:35:46.208Z,20.73
2023-10-10T20:38:13.768Z,20.70
2023-10-10T20:40:44.331Z,20.66
2023-10-10T20:43:12.081Z,20.64
2023-10-10T20:45:39.467Z,20.61
2023-10-10T20:48:12.928Z,20.60
2023-10-10T20:53:32.181Z,20.53
2023-10-10T20:55:59.079Z,20.55
2023-10-10T20:58:25.866Z,20.54
2023-10-10T21:00:52.780Z,20.53
2023-10-10T21:03:20.061Z,20.50
2023-10-10T21:05:49.007Z,20.46
2023-10-10T21:08:19.010Z,20.46
2023-10-10T21:09:13.534Z,20.57
2023-10-10T21:11:11.723Z,20.44
2023-10-10T21:13:38.642Z,20.43
2023-10-10T21:16:16.164Z,20.44
2023-10-10T21:18:43.884Z,20.42
2023-10-10T21:21:12.190Z,20.40
2023-10-10T21:23:40.115Z,20.41
2023-10-10T21:26:12.049Z,20.37
2023-10-10T21:28:38.887Z,20.38
2023-10-10T21:31:11.427Z,20.33
2023-10-10T21:33:42.081Z,20.32
2023-10-10T21:36:09.479Z,20.29
2023-10-10T21:38:36.501Z,20.30
2023-10-10T21:41:05.027Z,20.29
2023-10-10T21:43:34.640Z,20.29
2023-10-10T21:46:05.818Z,20.29
2023-10-10T21:48:32.823Z,20.27
2023-10-10T21:51:01.083Z,20.25
2023-10-10T21:53:28.604Z,20.26
2023-10-10T21:55:55.479Z,20.23
2023-10-10T21:58:22.250Z,20.21
2023-10-10T22:00:50.616Z,20.23
2023-10-10T22:03:17.493Z,20.24
2023-10-10T22:05:46.615Z,20.23
2023-10-10T22:08:14.261Z,20.22
2023-10-10T22:10:43.387Z,20.19
2023-10-10T22:13:12.803Z,20.18
2023-10-10T22:15:39.632Z,20.16
2023-10-10T22:18:06.677Z,20.16
2023-10-10T22:20:36.745Z,20.14
2023-10-10T22:23:06.065Z,20.11
2023-10-10T22:25:36.073Z,20.12
2023-10-10T22:28:05.353Z,20.09
2023-10-10T22:30:39.292Z,20.08
2023-10-10T22:33:12.460Z,20.10
2023-10-10T22:35:39.949Z,20.05
2023-10-10T22:38:07.288Z,20.07
2023-10-10T22:40:34.878Z,20.06
2023-10-10T22:43:04.220Z,20.04
2023-10-10T22:45:36.721Z,20.01
2023-10-10T22:48:05.771Z,20.04
2023-10-10T22:50:33.270Z,20.01
2023-10-10T22:53:02.705Z,19.97
2023-10-10T22:55:35.161Z,19.98
2023-10-10T22:58:08.323Z,19.95
2023-10-10T23:00:39.590Z,19.95
2023-10-10T23:03:14.313Z,19.94
2023-10-10T23:05:44.301Z,19.94
2023-10-10T23:08:12.682Z,19.96
2023-10-10T23:10:41.242Z,19.93
2023-10-10T23:13:08.413Z,19.92
2023-10-10T23:15:39.050Z,19.91
2023-10-10T23:18:12.164Z,19.89
2023-10-10T23:20:42.965Z,19.87
2023-10-10T23:23:11.627Z,19.87
2023-10-10T23:25:38.711Z,19.84
2023-10-10T23:28:05.575Z,19.82
2023-10-10T23:30:34.513Z,19.82
2023-10-10T23:33:01.979Z,19.80
2023-10-10T23:35:28.853Z,19.81
2023-10-10T23:38:01.992Z,19.80
2023-10-10T23:40:47.271Z,19.78
2023-10-10T23:43:20.085Z,19.79
2023-10-10T23:45:49.967Z,19.77
2023-10-10T23:48:17.721Z,19.76
2023-10-10T23:50:45.966Z,19.75
2023-10-10T23:53:14.516Z,19.74
2023-10-10T23:55:42.202Z,19.73
2023-10-10T23:58:13.351Z,19.71
